createdAt,value
2018-12-15T00:03:21.234Z,16.97
2018-12-15T00:05:49.745Z,19.93
2018-12-15T00:08:17.981Z,20.83
2018-12-15T00:13:46.238Z,18.07
2018-12-15T00:16:20.295Z,21.73
2018-12-15T00:18:48.533Z,21.17
2018-12-15T00:24:17.584Z,22.57
2018-12-15T00:26:51.718Z,20.23
2018-12-15T00:29:20.384Z,19.83
2018-12-15T00:34:48.695Z,23.10
2018-12-15T00:43:16.774Z,21.97
2018-12-15T00:45:45.124Z,23.30
2018-12-15T00:48:13.804Z,24.70
2018-12-15T00:53:44.235Z,20.60
2018-12-15T00:56:12.734Z,23.93
2018-12-15T00:58:40.971Z,23.10
2018-12-15T01:07:01.986Z,28.33
2018-12-15T01:09:30.223Z,24.93
2018-12-15T01:14:59.134Z,26.63
2018-12-15T01:17:27.418Z,24.00
2018-12-15T01:19:55.765Z,26.90
2018-12-15T01:25:24.569Z,24.97
2018-12-15T01:33:51.789Z,20.87
2018-12-15T01:36:20.324Z,26.67
2018-12-15T01:38:52.199Z,30.03
2018-12-15T01:44:13.496Z,25.37
2018-12-15T01:46:47.829Z,22.00
2018-12-15T01:49:20.404Z,29.63
2018-12-15T01:54:44.616Z,27.70
2018-12-15T01:57:12.930Z,26.80
2018-12-15T01:59:43.066Z,25.63
2018-12-15T02:05:05.339Z,25.30
2018-12-15T02:07:33.587Z,26.47
2018-12-15T02:10:01.920Z,24.50
2018-12-15T02:15:27.041Z,24.93
2018-12-15T02:17:55.375Z,26.37
2018-12-15T02:20:23.638Z,25.57
2018-12-15T02:25:53.419Z,27.40
2018-12-15T02:28:22.204Z,28.90
2018-12-15T02:33:52.591Z,28.57
2018-12-15T02:36:21.873Z,25.13
2018-12-15T02:38:51.784Z,26.30
2018-12-15T02:41:25.780Z,25.97
2018-12-15T02:43:57.934Z,28.70
2018-12-15T02:46:28.384Z,28.40
2018-12-15T02:55:09.989Z,28.53
2018-12-15T02:57:39.733Z,28.77
2018-12-15T03:00:12.375Z,25.90
2018-12-15T03:02:43.255Z,25.47
2018-12-15T03:05:17.307Z,26.53
2018-12-15T03:07:58.073Z,28.33
2018-12-15T03:10:32.514Z,26.87
2018-12-15T03:13:04.325Z,28.73
2018-12-15T03:15:38.197Z,28.90
2018-12-15T03:18:09.931Z,31.50
2018-12-15T03:20:49.992Z,28.43
2018-12-15T03:23:19.981Z,30.47
2018-12-15T03:25:52.529Z,30.33
2018-12-15T03:28:24.749Z,27.77
2018-12-15T03:30:59.323Z,28.03
2018-12-15T03:33:31.292Z,29.73
2018-12-15T03:36:17.885Z,29.60
2018-12-15T03:38:52.585Z,32.53
2018-12-15T03:41:33.248Z,28.27
2018-12-15T03:44:14.264Z,28.93
2018-12-15T03:46:44.318Z,29.40
2018-12-15T03:49:14.828Z,28.30
2018-12-15T03:51:46.933Z,27.50
2018-12-15T03:54:19.306Z,29.30
2018-12-15T03:56:53.975Z,32.30
2018-12-15T03:59:26.599Z,31.63
2018-12-15T04:02:13.301Z,31.63
2018-12-15T04:04:47.684Z,33.73
2018-12-15T04:07:20.407Z,30.07
2018-12-15T04:10:07.212Z,27.93
2018-12-15T04:15:36.200Z,29.17
2018-12-15T04:18:14.038Z,32.27
2018-12-15T04:20:50.351Z,32.77
2018-12-15T04:23:22.323Z,28.63
2018-12-15T04:25:53.879Z,28.10
2018-12-15T04:28:27.964Z,29.47
2018-12-15T04:31:01.790Z,30.77
2018-12-15T04:33:33.753Z,31.67
2018-12-15T04:36:13.263Z,32.37
2018-12-15T04:38:47.442Z,28.03
2018-12-15T04:41:28.229Z,30.33
2018-12-15T04:44:02.878Z,29.73
2018-12-15T04:46:37.150Z,29.90
2018-12-15T04:49:12.391Z,27.37
2018-12-15T04:51:44.518Z,30.90
2018-12-15T04:54:19.270Z,26.57
2018-12-15T04:56:51.640Z,25.87
2018-12-15T04:59:28.072Z,28.97
2018-12-15T05:02:02.664Z,28.13
2018-12-15T05:04:36.849Z,33.27
2018-12-15T05:07:08.415Z,28.47
2018-12-15T05:09:43.092Z,29.73
2018-12-15T05:12:13.072Z,31.77
2018-12-15T05:14:48.036Z,26.27
2018-12-15T05:17:28.555Z,32.30
2018-12-15T05:20:02.448Z,30.50
2018-12-15T05:22:34.119Z,27.47
2018-12-15T05:25:06.655Z,27.93
2018-12-15T05:27:38.996Z,29.30
2018-12-15T05:30:13.184Z,27.73
2018-12-15T05:32:47.289Z,26.30
2018-12-15T05:35:19.273Z,30.33
2018-12-15T05:37:53.051Z,32.27
2018-12-15T05:40:24.893Z,28.70
2018-12-15T05:42:56.439Z,30.67
2018-12-15T05:45:26.587Z,27.47
2018-12-15T05:47:56.750Z,26.57
2018-12-15T05:50:32.563Z,34.63
2018-12-15T05:53:07.963Z,28.87
2018-12-15T05:58:37.253Z,25.77
2018-12-15T06:01:05.903Z,27.27
2018-12-15T06:03:34.163Z,27.50
2018-12-15T06:08:55.522Z,28.50
2018-12-15T06:11:23.755Z,30.20
2018-12-15T06:13:52.115Z,27.57
2018-12-15T06:19:13.433Z,27.63
2018-12-15T06:21:41.690Z,26.57
2018-12-15T06:24:10.002Z,26.20
2018-12-15T06:29:38.324Z,28.37
2018-12-15T06:32:06.652Z,27.77
2018-12-15T06:34:35.058Z,29.13
2018-12-15T06:40:03.818Z,27.93
2018-12-15T06:42:32.086Z,23.40
2018-12-15T06:45:00.320Z,27.77
2018-12-15T06:50:22.592Z,23.17
2018-12-15T06:52:51.607Z,24.93
2018-12-15T06:55:20.056Z,27.83
2018-12-15T07:00:49.204Z,23.83
2018-12-15T07:03:17.588Z,23.57
2018-12-15T07:08:39.066Z,25.90
2018-12-15T07:11:07.292Z,26.13
2018-12-15T07:13:35.637Z,24.90
2018-12-15T07:18:56.876Z,26.40
2018-12-15T07:21:25.154Z,27.53
2018-12-15T07:23:53.350Z,24.90
2018-12-15T07:29:22.316Z,23.10
2018-12-15T07:31:50.576Z,23.27
2018-12-15T07:34:18.873Z,21.03
2018-12-15T07:39:39.762Z,22.23
2018-12-15T07:42:08.156Z,24.30
2018-12-15T07:44:37.017Z,18.57
2018-12-15T07:50:06.010Z,20.97
2018-12-15T07:52:34.388Z,12.77
2018-12-15T07:55:02.942Z,11.03
2018-12-15T08:00:31.354Z,14.10
2018-12-15T08:02:59.696Z,13.20
2018-12-15T08:05:28.614Z,14.17
2018-12-15T08:11:03.204Z,15.23
2018-12-15T08:13:33.150Z,14.40
2018-12-15T08:18:58.011Z,15.20
2018-12-15T08:21:24.772Z,12.20
2018-12-15T08:23:53.032Z,10.60
2018-12-15T08:29:22.295Z,14.47
2018-12-15T08:31:50.671Z,13.70
2018-12-15T08:34:18.943Z,11.67
2018-12-15T08:39:47.481Z,11.63
2018-12-15T08:42:15.699Z,11.70
2018-12-15T08:44:44.048Z,11.70
2018-12-15T08:50:06.217Z,12.27
2018-12-15T08:52:34.520Z,11.70
2018-12-15T08:55:02.767Z,14.47
2018-12-15T09:00:24.302Z,11.77
2018-12-15T09:02:52.942Z,12.17
2018-12-15T09:05:21.450Z,12.00
2018-12-15T09:10:42.990Z,10.63
2018-12-15T09:13:11.198Z,12.93
2018-12-15T09:15:39.478Z,11.90
2018-12-15T09:24:01.428Z,11.00
2018-12-15T09:26:29.791Z,10.33
2018-12-15T09:28:58.340Z,11.30
2018-12-15T09:34:19.477Z,9.13
2018-12-15T09:36:47.710Z,10.57
2018-12-15T09:39:16.083Z,9.87
2018-12-15T09:44:37.986Z,12.23
2018-12-15T09:47:06.315Z,14.43
2018-12-15T09:49:35.852Z,12.20
2018-12-15T09:54:56.832Z,10.53
2018-12-15T09:57:25.342Z,11.77
2018-12-15T09:59:53.564Z,12.50
2018-12-15T10:05:15.328Z,12.10
2018-12-15T10:07:43.966Z,11.57
2018-12-15T10:10:12.312Z,12.60
2018-12-15T10:15:33.344Z,11.67
2018-12-15T10:18:02.701Z,9.97
2018-12-15T10:23:07.721Z,12.00
2018-12-15T10:25:41.415Z,14.27
2018-12-15T10:28:11.423Z,11.40
2018-12-15T10:55:09.770Z,13.27
2018-12-15T10:57:39.594Z,14.63
2018-12-15T11:00:22.647Z,12.03
2018-12-15T11:02:54.527Z,11.43
2018-12-15T11:05:29.143Z,13.83
2018-12-15T11:07:59.157Z,10.90
2018-12-15T11:10:34.052Z,12.97
2018-12-15T11:13:06.188Z,10.67
2018-12-15T11:18:08.699Z,11.20
2018-12-15T11:20:38.098Z,12.37
2018-12-15T11:23:09.544Z,10.40
2018-12-15T11:25:43.668Z,11.33
2018-12-15T11:28:15.868Z,12.37
2018-12-15T11:30:48.426Z,10.97
2018-12-15T11:33:24.972Z,10.50
2018-12-15T11:35:59.284Z,12.30
2018-12-15T11:38:33.466Z,11.10
2018-12-15T11:41:05.281Z,10.77
2018-12-15T11:43:37.696Z,10.40
2018-12-15T11:46:09.913Z,11.40
2018-12-15T11:48:39.441Z,10.37
2018-12-15T11:51:13.671Z,9.90
2018-12-15T11:53:45.898Z,11.87
2018-12-15T11:56:18.974Z,10.17
2018-12-15T11:58:48.499Z,12.50
2018-12-15T12:01:23.424Z,10.00
2018-12-15T12:03:55.392Z,9.47
2018-12-15T12:06:26.764Z,9.40
2018-12-15T12:09:01.571Z,11.47
2018-12-15T12:11:33.246Z,11.43
2018-12-15T12:14:08.244Z,7.90
2018-12-15T12:19:19.297Z,10.33
2018-12-15T12:21:52.181Z,10.67
2018-12-15T12:24:30.484Z,11.40
2018-12-15T12:27:00.399Z,10.03
2018-12-15T12:29:31.572Z,13.13
2018-12-15T12:32:05.882Z,16.50
2018-12-15T12:34:37.430Z,15.80
2018-12-15T12:37:18.258Z,13.80
2018-12-15T12:39:53.219Z,13.73
2018-12-15T12:42:22.883Z,14.03
2018-12-15T12:44:54.740Z,13.97
2018-12-15T12:47:35.837Z,14.07
2018-12-15T12:50:13.737Z,14.10
2018-12-15T12:52:47.856Z,14.67
2018-12-15T12:55:17.660Z,15.47
2018-12-15T12:57:56.600Z,13.40
2018-12-15T13:00:28.406Z,14.77
2018-12-15T13:03:02.076Z,14.27
2018-12-15T13:05:36.679Z,15.93
2018-12-15T13:08:08.256Z,17.43
2018-12-15T13:10:42.244Z,15.20
2018-12-15T13:13:14.233Z,13.97
2018-12-15T13:15:45.632Z,15.40
2018-12-15T13:18:23.462Z,13.73
2018-12-15T13:20:59.041Z,14.93
2018-12-15T13:23:30.514Z,14.50
2018-12-15T13:26:08.335Z,16.73
2018-12-15T13:28:43.810Z,17.20
2018-12-15T13:31:15.634Z,14.50
2018-12-15T13:33:45.480Z,15.80
2018-12-15T13:36:19.912Z,15.13
2018-12-15T13:38:49.828Z,14.33
2018-12-15T13:41:23.560Z,14.53
2018-12-15T13:44:46.005Z,13.00
2018-12-15T13:47:17.900Z,14.53
2018-12-15T13:49:49.686Z,12.00
2018-12-15T13:52:23.605Z,12.47
2018-12-15T13:54:55.500Z,13.97
2018-12-15T13:57:26.917Z,15.87
2018-12-15T14:00:00.669Z,16.00
2018-12-15T14:02:32.791Z,15.47
2018-12-15T14:05:06.501Z,17.27
2018-12-15T14:07:38.457Z,14.73
2018-12-15T14:10:10.408Z,12.57
2018-12-15T14:12:45.126Z,13.20
2018-12-15T14:15:19.783Z,13.87
2018-12-15T14:17:52.588Z,23.33
2018-12-15T14:22:56.077Z,13.33
2018-12-15T14:25:28.408Z,21.83
2018-12-15T14:28:02.208Z,22.77
2018-12-15T14:30:34.486Z,15.03
2018-12-15T14:33:08.180Z,13.87
2018-12-15T14:35:40.160Z,15.23
2018-12-15T14:38:10.318Z,17.60
2018-12-15T14:40:41.738Z,15.83
2018-12-15T14:43:13.263Z,14.90
2018-12-15T14:45:43.408Z,12.23
2018-12-15T14:48:14.889Z,13.80
2018-12-15T14:50:48.431Z,14.27
2018-12-15T14:53:19.915Z,15.77
2018-12-15T14:55:51.283Z,12.13
2018-12-15T14:58:25.144Z,14.40
2018-12-15T15:00:57.534Z,13.60
2018-12-15T15:03:27.652Z,12.43
2018-12-15T15:05:58.026Z,14.93
2018-12-15T15:11:25.971Z,14.97
2018-12-15T15:16:47.507Z,13.70
2018-12-15T15:19:15.716Z,15.17
2018-12-15T15:24:36.391Z,16.17
2018-12-15T15:27:04.699Z,16.00
2018-12-15T15:29:32.943Z,16.67
2018-12-15T15:34:54.383Z,15.40
2018-12-15T15:37:23.415Z,18.47
2018-12-15T15:39:51.820Z,18.20
2018-12-15T15:45:13.595Z,17.63
2018-12-15T15:47:41.931Z,18.30
2018-12-15T15:50:10.150Z,20.83
2018-12-15T15:55:30.991Z,21.03
2018-12-15T15:58:00.499Z,19.77
2018-12-15T16:00:30.962Z,17.60
2018-12-15T16:05:52.791Z,21.40
2018-12-15T16:08:21.238Z,23.87
2018-12-15T16:10:49.548Z,21.33
2018-12-15T16:16:26.420Z,19.83
2018-12-15T16:18:55.737Z,24.77
2018-12-15T16:21:33.587Z,24.37
2018-12-15T16:27:01.044Z,23.03
2018-12-15T16:29:31.295Z,21.37
2018-12-15T16:34:55.796Z,24.20
2018-12-15T16:37:29.703Z,20.87
2018-12-15T16:43:04.300Z,22.63
2018-12-15T16:45:32.746Z,20.40
2018-12-15T16:48:01.037Z,25.37
2018-12-15T16:50:35.379Z,24.07
2018-12-15T16:56:00.960Z,22.57
2018-12-15T16:58:52.217Z,24.87
2018-12-15T17:01:20.540Z,24.60
2018-12-15T17:06:55.724Z,26.73
2018-12-15T17:09:27.236Z,27.70
2018-12-15T17:58:34.483Z,25.07
2018-12-15T18:01:02.829Z,29.13
2018-12-15T18:06:29.561Z,25.67
2018-12-15T18:08:57.879Z,24.47
2018-12-15T18:11:26.319Z,31.67
2018-12-15T18:16:48.167Z,27.30
2018-12-15T18:19:16.632Z,29.10
2018-12-15T18:22:03.484Z,29.20
2018-12-15T18:27:24.339Z,28.77
2018-12-15T18:29:52.731Z,25.63
2018-12-15T18:32:27.450Z,24.20
2018-12-15T18:34:55.677Z,28.70
2018-12-15T18:37:24.018Z,22.17
2018-12-15T18:39:57.884Z,25.30
2018-12-15T18:45:26.341Z,18.63
2018-12-15T18:47:54.671Z,19.73
2018-12-15T18:50:23.136Z,23.03
2018-12-15T18:55:52.482Z,23.43
2018-12-15T18:58:21.007Z,23.20
2018-12-15T19:00:49.294Z,21.07
2018-12-15T19:06:10.613Z,21.47
2018-12-15T19:08:39.039Z,22.03
2018-12-15T19:11:07.540Z,23.87
2018-12-15T19:16:28.988Z,21.77
2018-12-15T19:18:59.322Z,25.13
2018-12-15T19:21:35.266Z,22.03
2018-12-15T19:26:59.960Z,22.97
2018-12-15T19:32:32.765Z,23.00
2018-12-15T19:35:02.984Z,31.43
2018-12-15T19:37:31.230Z,22.30
2018-12-15T19:39:59.607Z,25.47
2018-12-15T19:45:28.778Z,25.00
2018-12-15T19:47:57.037Z,28.03
2018-12-15T19:50:25.339Z,24.83
2018-12-15T19:55:54.180Z,25.93
2018-12-15T19:58:22.952Z,25.07
2018-12-15T20:00:51.701Z,26.80
2018-12-15T20:06:24.087Z,25.37
2018-12-15T20:08:53.559Z,25.83
2018-12-15T20:11:21.909Z,24.37
2018-12-15T20:16:53.280Z,25.73
2018-12-15T20:19:21.582Z,28.20
2018-12-15T20:21:49.938Z,25.37
2018-12-15T20:27:18.736Z,23.77
2018-12-15T20:29:47.037Z,23.50
2018-12-15T20:32:15.665Z,27.87
2018-12-15T20:37:44.782Z,23.87
2018-12-15T20:40:13.067Z,25.80
2018-12-15T20:45:42.166Z,22.80
2018-12-15T20:48:10.919Z,23.83
2018-12-15T20:50:39.153Z,24.60
2018-12-15T20:56:07.846Z,21.83
2018-12-15T20:58:36.279Z,25.97
2018-12-15T21:01:04.507Z,25.13
2018-12-15T21:06:33.634Z,23.37
2018-12-15T21:09:01.934Z,19.50
2018-12-15T21:11:31.513Z,23.33
2018-12-15T21:16:53.235Z,23.43
2018-12-15T21:19:21.840Z,29.63
2018-12-15T21:21:51.242Z,22.40
2018-12-15T21:27:19.536Z,29.23
2018-12-15T21:29:47.840Z,27.00
2018-12-15T21:32:16.235Z,29.60
2018-12-15T21:37:45.202Z,26.93
2018-12-15T21:40:13.697Z,25.63
2018-12-15T21:45:35.926Z,26.50
2018-12-15T21:48:04.303Z,27.20
2018-12-15T21:50:32.566Z,24.93
2018-12-15T21:56:04.857Z,28.03
2018-12-15T21:58:33.191Z,27.37
2018-12-15T22:01:01.443Z,26.73
2018-12-15T22:06:30.668Z,30.23
2018-12-15T22:08:59.014Z,27.37
2018-12-15T22:11:27.380Z,26.33
2018-12-15T22:16:56.308Z,22.93
2018-12-15T22:19:24.587Z,22.83
2018-12-15T22:21:53.527Z,25.17
2018-12-15T22:27:22.367Z,21.87
2018-12-15T22:29:51.640Z,22.67
2018-12-15T22:32:20.017Z,26.63
2018-12-15T22:37:48.369Z,29.67
2018-12-15T22:40:16.614Z,24.63
2018-12-15T22:42:45.132Z,22.70
2018-12-15T22:48:14.799Z,25.00
2018-12-15T22:50:43.777Z,29.87
2018-12-15T22:56:07.243Z,23.60
2018-12-15T22:58:35.566Z,22.47
2018-12-15T23:01:08.041Z,24.87
2018-12-15T23:06:38.142Z,24.10
2018-12-15T23:09:07.607Z,23.63
2018-12-15T23:11:36.322Z,26.73
2018-12-15T23:17:05.433Z,22.27
2018-12-15T23:19:33.685Z,23.03
2018-12-15T23:22:01.973Z,24.80
2018-12-15T23:24:33.568Z,27.07
2018-12-15T23:27:01.832Z,23.20
2018-12-15T23:29:31.188Z,24.47
2018-12-15T23:31:59.552Z,21.73
2018-12-15T23:37:29.403Z,21.93
2018-12-15T23:39:58.917Z,22.70
2018-12-15T23:42:27.115Z,21.57
2018-12-15T23:47:56.329Z,23.23
2018-12-15T23:50:24.613Z,26.10
2018-12-15T23:52:53.133Z,23.47
2018-12-15T23:58:15.500Z,28.60
